Time;durP1;ratioP1;P1;durP2;ratioP2;P2;SDS_P1;SDS_P2;PMS_P1;PMS_P2;Temp;Humidity;BMP_temperature;BMP_pressure;BME280_temperature;BME280_humidity;BME280_pressure;Samples;Min_cycle;Max_cycle;Signal;HPM_P1;HPM_P2
2024/02/29 00:00:31;;;;;;;;;13.75;9.75;;;;;10.96;65.79;101673.56;2052012;27;1838879;-75
2024/02/29 00:01:43;;;;;;;;;11.00;11.00;;;;;11.01;65.60;101674.31;2023866;27;2781560;-75
2024/02/29 00:02:56;;;;;;;;;8.17;7.33;;;;;10.95;65.55;101666.53;2052897;27;2748194;-74
2024/02/29 00:04:09;;;;;;;;;16.17;11.83;;;;;10.96;65.45;101662.16;2039433;27;1819064;-74
2024/02/29 00:05:21;;;;;;;;;10.50;10.50;;;;;11.00;65.47;101672.59;2021866;27;1834618;-74
2024/02/29 00:06:32;;;;;;;;;16.50;13.75;;;;;11.02;65.74;101673.41;2037759;27;1834702;-75
2024/02/29 00:07:42;;;;;;;;;10.00;10.00;;;;;10.99;65.61;101668.22;2024199;27;3508646;-75
2024/02/29 00:08:53;;;;;;;;;12.50;11.50;;;;;10.99;65.42;101668.22;2040687;27;2789854;-74
2024/02/29 00:10:05;;;;;;;;;10.00;10.00;;;;;11.01;65.74;101666.41;2041342;27;2772099;-75
2024/02/29 00:11:15;;;;;;;;;14.33;14.33;;;;;10.94;65.51;101654.28;2025423;27;3528367;-75
2024/02/29 00:12:26;;;;;;;;;14.00;11.00;;;;;11.01;65.68;101662.94;2039011;28;3510650;-75
2024/02/29 00:13:37;;;;;;;;;15.00;12.00;;;;;11.01;65.26;101666.41;2037284;27;2792972;-75
2024/02/29 00:14:48;;;;;;;;;13.33;11.00;;;;;10.96;65.65;101651.63;2047973;27;3514133;-75
2024/02/29 00:15:59;;;;;;;;;14.50;14.00;;;;;10.98;65.76;101655.97;2043326;27;2792994;-75
2024/02/29 00:17:10;;;;;;;;;13.00;10.67;;;;;11.02;65.42;101662.03;2038807;28;3515840;-75
2024/02/29 00:18:21;;;;;;;;;14.00;11.00;;;;;11.06;65.46;101657.59;2033858;27;2794038;-75
2024/02/29 00:19:32;;;;;;;;;9.00;9.00;;;;;11.06;65.67;101657.59;2050289;27;2742984;-74
2024/02/29 00:20:43;;;;;;;;;14.00;13.00;;;;;10.95;65.52;101642.88;2031374;27;2787739;-75
2024/02/29 00:21:55;;;;;;;;;14.75;13.00;;;;;10.98;65.61;101645.44;2054881;27;1850273;-75
2024/02/29 00:23:05;;;;;;;;;11.00;10.00;;;;;11.02;65.78;101646.25;2023000;27;2792968;-75
2024/02/29 00:24:16;;;;;;;;;10.67;10.00;;;;;11.00;65.54;101651.53;2008801;28;3503316;-75
2024/02/29 00:25:28;;;;;;;;;15.50;11.00;;;;;11.02;65.57;101651.50;2049373;27;1848669;-75
2024/02/29 00:26:39;;;;;;;;;12.00;9.67;;;;;11.01;65.57;101645.38;2038562;27;1844130;-75
2024/02/29 00:27:50;;;;;;;;;10.50;10.25;;;;;10.99;65.55;101641.91;2032389;27;1823168;-75
2024/02/29 00:29:02;;;;;;;;;12.50;10.00;;;;;11.00;65.56;101640.16;2044194;27;1840963;-74
2024/02/29 00:30:13;;;;;;;;;12.50;11.50;;;;;10.99;65.70;101635.78;2029777;27;2781517;-74
2024/02/29 00:31:26;;;;;;;;;11.83;10.67;;;;;11.01;65.33;101634.84;2055795;27;1821168;-74
2024/02/29 00:32:37;;;;;;;;;11.00;9.00;;;;;11.08;65.53;101640.00;2009351;27;2778396;-74
2024/02/29 00:33:48;;;;;;;;;11.00;10.00;;;;;11.01;65.48;101629.59;2051396;27;1828423;-74
2024/02/29 00:34:59;;;;;;;;;8.33;7.67;;;;;11.07;65.48;101635.63;2029934;27;3447128;-75
2024/02/29 00:36:10;;;;;;;;;14.00;11.00;;;;;10.99;65.73;101623.50;2062071;27;1842542;-75
2024/02/29 00:37:21;;;;;;;;;12.00;12.00;;;;;11.00;65.65;101621.72;2001689;27;2792486;-75
2024/02/29 00:38:31;;;;;;;;;12.00;9.00;;;;;11.01;65.55;101621.69;2039198;27;3475252;-75
2024/02/29 00:39:42;;;;;;;;;11.00;11.00;;;;;11.07;65.51;101638.25;2047091;27;3511725;-75
2024/02/29 00:40:53;;;;;;;;;11.00;8.67;;;;;11.03;65.46;101622.56;2039500;27;2755584;-75
2024/02/29 00:42:04;;;;;;;;;12.50;11.00;;;;;11.12;65.25;101633.75;2045043;27;2784650;-75
2024/02/29 00:43:15;;;;;;;;;10.67;8.00;;;;;11.13;65.43;101630.25;2046919;27;3475196;-75
2024/02/29 00:44:26;;;;;;;;;9.00;9.00;;;;;11.08;65.82;101621.59;2051489;27;2736713;-75
2024/02/29 00:45:37;;;;;;;;;10.00;10.00;;;;;11.10;65.35;101619.78;2009496;27;3511688;-75
2024/02/29 00:46:48;;;;;;;;;12.33;11.33;;;;;11.08;65.36;101611.06;2046098;27;3505432;-75
2024/02/29 00:47:59;;;;;;;;;12.67;10.00;;;;;11.12;65.24;101617.97;2033312;27;3506485;-75
2024/02/29 00:49:11;;;;;;;;;11.00;8.67;;;;;11.09;65.41;101610.13;2035015;27;3480853;-75
2024/02/29 00:50:25;;;;;;;;;10.83;9.00;;;;;11.14;65.12;101616.19;2052315;27;2740323;-74
2024/02/29 00:51:35;;;;;;;;;8.67;8.67;;;;;11.11;65.62;101608.38;2003022;27;3467944;-75
2024/02/29 00:52:46;;;;;;;;;10.00;10.00;;;;;11.08;65.45;101598.78;2040184;27;2775391;-75
2024/02/29 00:53:57;;;;;;;;;9.67;9.67;;;;;11.05;65.44;101587.44;2031985;27;2762756;-74
2024/02/29 00:55:11;;;;;;;;;10.00;9.00;;;;;11.10;65.16;101590.84;2042104;27;3485670;-75
2024/02/29 00:56:22;;;;;;;;;10.00;9.00;;;;;11.06;65.56;101586.56;2026038;27;2761819;-75
2024/02/29 00:57:33;;;;;;;;;7.33;7.00;;;;;11.05;65.60;101579.53;2051643;27;2737793;-74
2024/02/29 00:58:44;;;;;;;;;9.25;8.25;;;;;11.10;65.59;101586.44;2042561;27;1832057;-74
2024/02/29 00:59:54;;;;;;;;;10.33;9.33;;;;;11.10;65.52;101578.56;2031876;27;3495522;-75
2024/02/29 01:01:06;;;;;;;;;8.00;8.00;;;;;11.05;65.44;101577.78;2056794;27;2746087;-74
2024/02/29 01:02:19;;;;;;;;;9.50;8.50;;;;;11.10;65.49;101578.56;2029829;27;2728400;-75
2024/02/29 01:03:29;;;;;;;;;12.33;9.00;;;;;11.06;65.38;101573.41;2003776;27;2750254;-75
2024/02/29 01:04:40;;;;;;;;;10.00;8.00;;;;;11.12;65.37;101579.38;2050736;27;2745096;-74
2024/02/29 01:05:54;;;;;;;;;7.33;7.33;;;;;11.10;65.26;101570.66;2032507;27;2733638;-74
2024/02/29 01:07:07;;;;;;;;;10.83;9.50;;;;;11.11;65.34;101577.63;2037781;27;2749282;-74
2024/02/29 01:08:20;;;;;;;;;8.50;8.17;;;;;11.08;65.45;101576.84;2031776;27;2740368;-74
2024/02/29 01:09:31;;;;;;;;;9.33;8.00;;;;;11.14;65.29;101574.94;2011626;27;2748212;-75
2024/02/29 01:10:42;;;;;;;;;12.67;9.00;;;;;11.14;65.30;101577.56;2045926;27;2765954;-75
2024/02/29 01:11:53;;;;;;;;;10.33;9.33;;;;;11.07;65.20;101564.59;2041001;27;3487064;-75
2024/02/29 01:13:04;;;;;;;;;9.00;8.00;;;;;11.05;65.39;101556.75;2027151;28;2746105;-75
2024/02/29 01:14:15;;;;;;;;;11.00;10.00;;;;;11.16;65.46;101579.31;2042222;27;3477319;-75
2024/02/29 01:15:25;;;;;;;;;13.67;9.33;;;;;11.05;65.21;101550.59;2041859;27;3498659;-75
2024/02/29 01:16:36;;;;;;;;;11.00;7.33;;;;;11.03;65.26;101548.88;2041482;27;3481835;-75
2024/02/29 01:17:48;;;;;;;;;9.00;9.00;;;;;11.14;65.50;101567.06;2053257;27;2735674;-75
2024/02/29 01:19:00;;;;;;;;;9.67;9.00;;;;;11.07;65.38;101546.16;2002963;27;3472115;-75
2024/02/29 01:20:11;;;;;;;;;11.00;8.67;;;;;11.05;65.44;101543.59;2033045;27;3488808;-76
2024/02/29 01:21:21;;;;;;;;;11.33;8.67;;;;;11.12;65.52;101554.84;2048084;27;2758629;-75
2024/02/29 01:22:32;;;;;;;;;9.33;7.67;;;;;11.07;65.30;101539.16;2040695;27;3451282;-75
2024/02/29 01:23:43;;;;;;;;;11.67;11.00;;;;;11.14;65.41;101550.41;2038105;27;3508599;-75
2024/02/29 01:24:54;;;;;;;;;11.00;8.00;;;;;11.13;65.24;101546.91;2041623;28;2761723;-75
2024/02/29 01:26:05;;;;;;;;;9.00;9.00;;;;;11.10;65.47;101540.84;2041785;27;2743972;-75
2024/02/29 01:27:16;;;;;;;;;9.67;8.33;;;;;11.07;65.30;101533.00;2032875;27;2753482;-75
2024/02/29 01:28:27;;;;;;;;;8.00;8.00;;;;;11.09;65.69;101533.84;2053613;27;2729429;-75
2024/02/29 01:29:39;;;;;;;;;8.00;8.00;;;;;11.06;65.67;101529.53;2004382;27;3455441;-75
2024/02/29 01:30:52;;;;;;;;;9.17;8.67;;;;;11.07;65.61;101530.38;2053587;27;2746577;-74
2024/02/29 01:32:03;;;;;;;;;8.00;8.00;;;;;11.11;65.49;101534.69;2007479;27;2746226;-75
2024/02/29 01:33:14;;;;;;;;;11.00;9.67;;;;;11.16;65.88;101545.13;2046959;27;3500305;-75
2024/02/29 01:34:24;;;;;;;;;10.33;10.00;;;;;11.17;65.83;101536.31;2048177;27;2767033;-75
2024/02/29 01:35:35;;;;;;;;;10.00;8.67;;;;;11.12;65.35;101525.88;2048734;27;3471081;-75
2024/02/29 01:36:47;;;;;;;;;9.25;8.75;;;;;11.12;65.64;101531.16;2056965;27;2738807;-76
2024/02/29 01:37:58;;;;;;;;;9.67;9.67;;;;;11.16;65.58;101526.69;2026180;27;3498270;-75
2024/02/29 01:39:09;;;;;;;;;10.00;10.00;;;;;11.13;65.67;101523.25;2043142;27;3498152;-75
2024/02/29 01:40:20;;;;;;;;;12.00;9.67;;;;;11.21;65.59;101530.94;2041022;27;3508137;-75
2024/02/29 01:41:30;;;;;;;;;10.00;8.33;;;;;11.14;65.85;101517.06;2035503;28;2753425;-75
2024/02/29 01:42:41;;;;;;;;;10.00;8.67;;;;;11.20;65.94;101525.72;2041492;27;2767051;-75
2024/02/29 01:43:56;;;;;;;;;11.00;11.00;;;;;11.14;65.87;101510.94;2036601;27;2786204;-74
2024/02/29 01:45:11;;;;;;;;;8.17;8.17;;;;;11.18;65.89;101511.75;2053796;27;2734637;-74
2024/02/29 01:46:23;;;;;;;;;9.67;8.67;;;;;11.22;65.87;101513.38;2002520;28;3474205;-74
2024/02/29 01:47:33;;;;;;;;;8.00;7.33;;;;;11.19;65.95;101505.56;2026176;28;3465885;-75
2024/02/29 01:48:46;;;;;;;;;10.50;9.00;;;;;11.24;65.91;101511.59;2049532;27;2752399;-74
2024/02/29 01:50:02;;;;;;;;;13.33;9.67;;;;;11.25;65.74;101506.31;2031843;27;3507556;-74
2024/02/29 01:51:16;;;;;;;;;12.50;10.50;;;;;11.23;65.94;101500.22;2043156;27;1843988;-74
2024/02/29 01:52:29;;;;;;;;;10.00;8.67;;;;;11.21;65.93;101498.53;2027477;27;2764838;-74
2024/02/29 01:53:40;;;;;;;;;12.33;9.00;;;;;11.22;66.03;101490.56;2025981;27;3488776;-74
2024/02/29 01:54:51;;;;;;;;;8.00;8.00;;;;;11.24;66.11;101499.28;2055297;27;1829413;-74
2024/02/29 01:56:01;;;;;;;;;8.67;8.33;;;;;11.25;65.90;101498.41;2018800;27;3459619;-74
2024/02/29 01:57:13;;;;;;;;;9.00;9.00;;;;;11.29;66.08;101498.31;2045266;27;2749259;-74
2024/02/29 01:58:23;;;;;;;;;10.67;9.00;;;;;11.24;65.93;101487.91;2022823;27;3476297;-74
2024/02/29 01:59:38;;;;;;;;;10.67;8.00;;;;;11.25;66.10;101485.25;2042365;27;3464831;-75
2024/02/29 02:00:48;;;;;;;;;11.67;9.00;;;;;11.25;66.03;101479.97;2025882;27;3488769;-75
2024/02/29 02:02:00;;;;;;;;;13.00;11.00;;;;;11.24;66.05;101469.47;2063386;27;1840869;-74
2024/02/29 02:03:13;;;;;;;;;8.67;8.67;;;;;11.31;66.03;101481.59;2060336;27;2738825;-75
2024/02/29 02:04:24;;;;;;;;;8.00;8.00;;;;;11.32;66.17;101480.69;2034432;27;3455491;-75
2024/02/29 02:05:35;;;;;;;;;9.33;8.00;;;;;11.34;66.16;101478.00;2049514;27;2743057;-75
2024/02/29 02:06:46;;;;;;;;;9.50;9.50;;;;;11.27;66.30;101465.91;2046480;27;2755488;-74
2024/02/29 02:07:57;;;;;;;;;11.33;8.00;;;;;11.29;66.41;101464.09;2057564;27;2746058;-75
2024/02/29 02:09:07;;;;;;;;;11.67;8.00;;;;;11.32;66.38;101475.44;2002989;27;2766990;-75
2024/02/29 02:10:18;;;;;;;;;9.00;7.00;;;;;11.30;66.11;101464.09;2051027;28;2749215;-75
2024/02/29 02:11:29;;;;;;;;;11.50;10.50;;;;;11.33;66.37;101465.78;2001911;27;2778378;-75
2024/02/29 02:12:40;;;;;;;;;7.67;7.67;;;;;11.29;66.56;101458.84;2021434;27;2729413;-75
2024/02/29 02:13:53;;;;;;;;;8.50;7.17;;;;;11.29;66.60;101456.19;2030462;27;2739892;-75
2024/02/29 02:15:04;;;;;;;;;11.33;8.33;;;;;11.29;66.47;101458.84;2003986;27;3476852;-75
2024/02/29 02:16:16;;;;;;;;;10.00;8.40;;;;;11.30;66.68;101455.31;2052224;27;2732568;-75
2024/02/29 02:17:27;;;;;;;;;7.67;7.67;;;;;11.37;66.53;101472.69;2027847;27;2741938;-75
2024/02/29 02:18:38;;;;;;;;;10.67;8.33;;;;;11.30;66.84;101456.19;2028521;27;3479438;-75
2024/02/29 02:19:51;;;;;;;;;9.75;9.00;;;;;11.28;66.50;101450.09;2060235;27;2759651;-75
2024/02/29 02:21:02;;;;;;;;;8.67;7.00;;;;;11.33;66.65;101449.97;2018247;27;2746103;-75
2024/02/29 02:22:13;;;;;;;;;10.33;8.33;;;;;11.35;66.83;101456.06;2033375;27;3464878;-74
2024/02/29 02:23:24;;;;;;;;;9.25;8.00;;;;;11.30;66.66;101442.16;2051727;28;2744027;-74
2024/02/29 02:24:38;;;;;;;;;8.83;7.83;;;;;11.35;66.88;101449.03;2053403;27;2737761;-75
2024/02/29 02:25:48;;;;;;;;;12.00;8.00;;;;;11.35;66.97;101454.31;2008826;27;3472115;-75
2024/02/29 02:26:59;;;;;;;;;10.67;10.00;;;;;11.32;67.15;101442.97;2046901;27;3501281;-75
2024/02/29 02:28:11;;;;;;;;;10.00;10.00;;;;;11.24;67.04;101430.88;2036350;27;3493430;-75
2024/02/29 02:29:22;;;;;;;;;9.00;8.00;;;;;11.24;67.01;101436.13;2033784;27;2743107;-75
2024/02/29 02:30:33;;;;;;;;;7.00;7.00;;;;;11.24;67.02;101430.88;2043531;27;2741932;-75
2024/02/29 02:31:44;;;;;;;;;9.33;8.33;;;;;11.23;67.20;101431.78;2052067;27;2746131;-75
2024/02/29 02:32:54;;;;;;;;;11.00;9.00;;;;;11.30;67.06;101429.88;2003552;28;2749270;-75
2024/02/29 02:34:06;;;;;;;;;8.75;8.75;;;;;11.28;67.21;101425.53;2057369;27;2737764;-75
2024/02/29 02:35:19;;;;;;;;;8.83;8.83;;;;;11.23;67.11;101418.63;2059290;27;2756486;-75
2024/02/29 02:36:30;;;;;;;;;13.00;9.00;;;;;11.33;67.30;101432.41;2047280;27;1834653;-75
2024/02/29 02:37:44;;;;;;;;;8.33;7.67;;;;;11.30;67.26;101418.47;2052783;27;2749239;-75
2024/02/29 02:38:54;;;;;;;;;12.00;8.33;;;;;11.32;67.34;101419.28;2002043;27;3473730;-74
2024/02/29 02:40:06;;;;;;;;;9.60;9.00;;;;;11.28;67.10;101405.38;2055113;27;1819038;-74
2024/02/29 02:41:17;;;;;;;;;12.33;10.67;;;;;11.31;67.17;101407.91;2002142;28;3515885;-74
2024/02/29 02:42:28;;;;;;;;;9.00;8.33;;;;;11.36;67.23;101419.16;2059534;27;2742997;-74
2024/02/29 02:43:44;;;;;;;;;9.50;8.17;;;;;11.34;67.30;101406.94;2034063;27;2743513;-75
2024/02/29 02:44:54;;;;;;;;;10.00;8.67;;;;;11.35;67.47;101403.44;2003218;27;2762788;-75
2024/02/29 02:46:06;;;;;;;;;8.33;7.00;;;;;11.32;67.31;101401.75;2052208;27;2735670;-75
2024/02/29 02:47:19;;;;;;;;;8.67;8.67;;;;;11.37;67.45;101409.50;2037374;27;2737767;-75
2024/02/29 02:48:32;;;;;;;;;8.67;6.83;;;;;11.32;67.36;101403.50;2025167;28;2727359;-75
2024/02/29 02:49:42;;;;;;;;;9.00;9.00;;;;;11.30;67.73;101397.41;1997737;27;2751334;-75
2024/02/29 02:50:53;;;;;;;;;7.00;6.67;;;;;11.27;67.88;101386.97;2059938;27;2733639;-75
2024/02/29 02:52:07;;;;;;;;;8.67;7.33;;;;;11.34;67.60;101397.28;2051429;27;2744027;-75
2024/02/29 02:53:17;;;;;;;;;8.67;8.00;;;;;11.29;67.80;101391.28;2002697;27;2740989;-75
2024/02/29 02:54:28;;;;;;;;;7.33;7.33;;;;;11.32;67.50;101396.47;2050979;27;2750316;-74
2024/02/29 02:55:39;;;;;;;;;10.00;8.67;;;;;11.35;67.83;101398.16;1996638;28;2756507;-74
2024/02/29 02:56:50;;;;;;;;;11.00;8.00;;;;;11.36;68.05;101402.50;2031740;28;3476289;-74
2024/02/29 02:58:01;;;;;;;;;10.33;9.00;;;;;11.29;68.00;101382.50;2041812;27;2749319;-74
2024/02/29 02:59:11;;;;;;;;;11.00;7.33;;;;;11.25;68.05;101373.84;2047426;27;2754605;-74
2024/02/29 03:00:22;;;;;;;;;12.67;10.33;;;;;11.29;68.11;101380.75;2048361;27;3501681;-74
2024/02/29 03:01:33;;;;;;;;;6.67;6.67;;;;;11.28;68.26;101379.03;2048703;27;2739882;-75
2024/02/29 03:02:44;;;;;;;;;6.67;6.67;;;;;11.28;68.03;101372.91;2047873;27;2750373;-75
2024/02/29 03:03:55;;;;;;;;;9.67;8.00;;;;;11.32;68.18;101377.19;2037318;27;3467951;-74
2024/02/29 03:05:09;;;;;;;;;8.00;8.00;;;;;11.31;68.29;101372.84;2052273;27;2738807;-74
2024/02/29 03:06:22;;;;;;;;;10.00;7.67;;;;;11.28;68.39;101367.66;2056575;27;2751355;-74
2024/02/29 03:07:32;;;;;;;;;8.67;7.33;;;;;11.27;68.46;101353.63;2002891;27;3447144;-74
2024/02/29 03:08:43;;;;;;;;;7.67;6.33;;;;;11.35;68.40;101371.84;2044265;27;2732679;-74
2024/02/29 03:09:54;;;;;;;;;8.00;8.00;;;;;11.34;68.42;101370.97;2058745;27;2740379;-75
2024/02/29 03:11:05;;;;;;;;;10.00;7.67;;;;;11.30;68.51;101355.31;2003997;27;2758712;-75
2024/02/29 03:12:16;;;;;;;;;6.00;6.00;;;;;11.31;68.49;101357.06;2051551;27;2742977;-75
2024/02/29 03:13:29;;;;;;;;;9.50;7.33;;;;;11.31;68.37;101355.25;2051919;27;2753392;-75
2024/02/29 03:14:43;;;;;;;;;5.17;5.17;;;;;11.33;68.55;101352.59;2036452;27;2744362;-75
2024/02/29 03:15:56;;;;;;;;;6.17;6.17;;;;;11.31;68.48;101352.63;2053642;27;2734660;-74
2024/02/29 03:17:09;;;;;;;;;7.17;7.00;;;;;11.34;68.73;101357.81;2028758;27;2741947;-75
2024/02/29 03:18:22;;;;;;;;;8.00;7.50;;;;;11.39;68.85;101365.59;2028837;27;2740968;-75
2024/02/29 03:19:36;;;;;;;;;7.67;7.17;;;;;11.30;68.85;101350.03;2038429;27;2729459;-75
2024/02/29 03:20:49;;;;;;;;;9.00;7.00;;;;;11.36;69.01;101360.41;2053175;27;2744018;-75
2024/02/29 03:21:59;;;;;;;;;6.00;6.00;;;;;11.30;69.28;101348.28;2026597;27;2746124;-74
2024/02/29 03:23:10;;;;;;;;;8.00;7.33;;;;;11.29;69.00;101343.03;2043078;27;2744010;-75
2024/02/29 03:24:22;;;;;;;;;7.50;7.50;;;;;11.34;69.09;101343.78;2059471;27;2736229;-75
2024/02/29 03:25:35;;;;;;;;;7.17;6.00;;;;;11.37;69.26;101351.59;2051689;28;2743507;-74
2024/02/29 03:26:48;;;;;;;;;7.00;7.00;;;;;11.31;68.96;101336.84;2031330;27;2742981;-74
2024/02/29 03:28:02;;;;;;;;;8.67;7.17;;;;;11.33;69.19;101339.44;2035792;27;2728362;-74
2024/02/29 03:29:15;;;;;;;;;6.00;6.00;;;;;11.41;69.10;101345.34;2051282;27;2745079;-74
2024/02/29 03:30:26;;;;;;;;;7.00;5.67;;;;;11.34;69.25;101335.88;2002388;27;2750638;-74
2024/02/29 03:31:37;;;;;;;;;8.00;8.00;;;;;11.40;69.07;101335.75;2052412;27;2730470;-74
2024/02/29 03:32:52;;;;;;;;;7.83;6.17;;;;;11.40;69.04;101341.00;2052428;27;2746083;-75
2024/02/29 03:34:05;;;;;;;;;5.50;5.50;;;;;11.34;69.37;101326.25;2029380;27;2752869;-75
2024/02/29 03:35:16;;;;;;;;;12.00;7.67;;;;;11.44;69.54;101340.00;2001427;27;2770165;-74
2024/02/29 03:36:28;;;;;;;;;6.00;6.00;;;;;11.40;69.47;101334.88;2039575;28;2746098;-74
2024/02/29 03:37:38;;;;;;;;;10.00;10.00;;;;;11.43;69.58;101345.31;2025837;27;2773272;-74
2024/02/29 03:38:49;;;;;;;;;10.67;8.67;;;;;11.39;69.66;101327.88;2047057;27;2751295;-74
2024/02/29 03:40:00;;;;;;;;;12.33;10.33;;;;;11.41;69.60;101332.19;2046998;27;3514847;-75
2024/02/29 03:41:13;;;;;;;;;8.20;8.20;;;;;11.34;69.65;101312.22;2059652;27;2739852;-75
2024/02/29 03:42:26;;;;;;;;;7.00;7.00;;;;;11.42;69.61;101333.94;2059966;27;2735705;-74
2024/02/29 03:43:39;;;;;;;;;7.17;7.00;;;;;11.38;69.69;101327.03;2036706;27;2734652;-74
2024/02/29 03:44:50;;;;;;;;;10.00;10.00;;;;;11.39;69.81;101319.97;2010030;27;2753386;-74
2024/02/29 03:46:01;;;;;;;;;8.00;8.00;;;;;11.45;69.91;101333.84;2058384;27;2734025;-74
2024/02/29 03:47:12;;;;;;;;;6.67;6.67;;;;;11.46;69.78;101334.69;2002407;28;2736279;-75
2024/02/29 03:48:23;;;;;;;;;10.00;8.00;;;;;11.40;69.93;101319.97;2030235;27;3485684;-75
2024/02/29 03:49:34;;;;;;;;;9.67;8.33;;;;;11.41;69.87;101319.03;2051183;27;2756553;-74
2024/02/29 03:50:45;;;;;;;;;10.67;8.33;;;;;11.43;69.90;101313.75;2002111;27;2756615;-75
2024/02/29 03:51:55;;;;;;;;;10.00;7.00;;;;;11.51;70.12;101319.63;2031516;28;2755577;-75
2024/02/29 03:53:06;;;;;;;;;11.67;8.67;;;;;11.46;69.88;101311.88;2043760;27;2773759;-75
2024/02/29 03:54:17;;;;;;;;;14.33;9.33;;;;;11.49;70.23;101324.09;2045790;27;3493981;-75
2024/02/29 03:55:28;;;;;;;;;9.33;7.67;;;;;11.43;69.95;101304.06;2051525;27;2745067;-74
2024/02/29 03:56:38;;;;;;;;;11.00;8.33;;;;;11.42;70.15;101307.59;2002894;27;2767017;-75
2024/02/29 03:57:49;;;;;;;;;9.00;9.00;;;;;11.43;70.02;101309.31;2040305;27;2752812;-75
2024/02/29 03:59:01;;;;;;;;;8.00;7.00;;;;;11.37;70.30;101298.97;2051073;27;2739841;-75
2024/02/29 04:00:12;;;;;;;;;12.33;9.33;;;;;11.44;70.02;101311.06;2031491;27;3486211;-74
2024/02/29 04:01:25;;;;;;;;;8.60;8.20;;;;;11.39;70.25;101293.66;2058821;27;2741976;-74
2024/02/29 04:02:39;;;;;;;;;8.00;7.50;;;;;11.43;70.34;101306.69;2030379;28;2737805;-75
2024/02/29 04:03:52;;;;;;;;;9.50;8.33;;;;;11.40;70.18;101298.03;2052597;28;2729413;-74
2024/02/29 04:05:07;;;;;;;;;8.00;6.83;;;;;11.38;70.21;101295.44;2029027;27;2735698;-74
2024/02/29 04:06:21;;;;;;;;;7.17;7.17;;;;;11.46;70.35;101301.34;2037752;27;2724731;-74
2024/02/29 04:07:31;;;;;;;;;12.00;10.00;;;;;11.44;70.60;101297.03;2009381;27;3508585;-75
2024/02/29 04:08:42;;;;;;;;;11.33;9.00;;;;;11.48;70.25;101296.06;2043800;27;2761778;-74
2024/02/29 04:09:54;;;;;;;;;8.33;7.33;;;;;11.46;70.47;101292.56;2059614;27;2733622;-75
2024/02/29 04:11:05;;;;;;;;;10.67;10.67;;;;;11.38;70.56;101282.28;2001675;28;3506917;-75
2024/02/29 04:12:16;;;;;;;;;4.00;3.00;;;;;11.42;70.62;101289.19;2045671;27;2749261;-74
2024/02/29 04:13:28;;;;;;;;;6.50;5.75;;;;;11.39;70.53;101286.63;2058550;27;2747501;-74
2024/02/29 04:14:41;;;;;;;;;8.17;8.00;;;;;11.39;70.77;101277.88;2052552;27;2739853;-74
2024/02/29 04:15:53;;;;;;;;;9.75;9.00;;;;;11.41;70.84;101284.81;2023023;27;1829428;-75
2024/02/29 04:17:06;;;;;;;;;8.83;8.83;;;;;11.42;70.61;101280.41;2055104;27;2743026;-75
2024/02/29 04:18:17;;;;;;;;;10.67;9.00;;;;;11.42;70.78;101277.78;2016763;27;1835667;-75
2024/02/29 04:19:27;;;;;;;;;12.00;9.00;;;;;11.45;70.93;101286.47;2003691;28;2762851;-74
2024/02/29 04:20:38;;;;;;;;;11.33;7.67;;;;;11.42;70.80;101275.16;2042954;27;2767001;-75
2024/02/29 04:21:49;;;;;;;;;14.50;11.00;;;;;11.42;70.75;101277.78;2038252;28;2796134;-75
2024/02/29 04:23:00;;;;;;;;;10.67;8.67;;;;;11.45;70.74;101273.31;2042978;27;3475231;-75
2024/02/29 04:24:11;;;;;;;;;9.67;9.67;;;;;11.48;70.77;101277.63;2037742;28;2767005;-75
2024/02/29 04:25:23;;;;;;;;;8.75;8.50;;;;;11.39;70.93;101265.56;2050379;28;2732580;-74
2024/02/29 04:26:36;;;;;;;;;8.00;7.67;;;;;11.47;70.56;101278.53;2028784;27;2747176;-74
2024/02/29 04:27:50;;;;;;;;;9.83;8.33;;;;;11.47;70.91;101275.88;2044697;27;2745053;-74
2024/02/29 04:29:01;;;;;;;;;11.33;9.33;;;;;11.45;71.22;101265.41;2007902;27;3487727;-74
2024/02/29 04:30:12;;;;;;;;;7.00;6.00;;;;;11.47;70.70;101274.13;2039906;27;2747128;-74
2024/02/29 04:31:25;;;;;;;;;7.83;7.83;;;;;11.52;70.45;101286.28;2045817;27;2742992;-74
2024/02/29 04:32:38;;;;;;;;;7.00;7.00;;;;;11.43;70.91;101264.56;2029167;27;2741965;-74
2024/02/29 04:33:52;;;;;;;;;8.00;7.00;;;;;11.53;71.02;101275.69;2052044;27;2731519;-74
2024/02/29 04:35:02;;;;;;;;;10.00;9.00;;;;;11.52;71.01;101273.13;2025301;27;2751313;-74
2024/02/29 04:36:14;;;;;;;;;8.50;8.25;;;;;11.46;71.00;101269.75;2045268;27;2726336;-74
2024/02/29 04:37:27;;;;;;;;;7.83;7.83;;;;;11.49;70.79;101271.44;2030553;28;2728395;-74
2024/02/29 04:38:40;;;;;;;;;6.67;6.67;;;;;11.45;71.01;101265.41;2026790;27;2731531;-74
2024/02/29 04:39:51;;;;;;;;;7.00;7.00;;;;;11.44;71.00;101258.41;2029713;27;2744006;-74
2024/02/29 04:41:02;;;;;;;;;10.67;8.00;;;;;11.47;70.91;101268.88;2037108;27;2759086;-74
2024/02/29 04:42:13;;;;;;;;;11.00;8.33;;;;;11.45;71.14;101254.88;2037748;27;3487202;-74
2024/02/29 04:43:24;;;;;;;;;8.33;7.67;;;;;11.56;70.97;101274.75;2051340;27;2732600;-74
2024/02/29 04:44:37;;;;;;;;;8.83;8.17;;;;;11.51;70.80;101264.34;2030351;27;2752348;-74
2024/02/29 04:45:50;;;;;;;;;7.00;7.00;;;;;11.54;71.04;101263.41;2030877;27;2733976;-74
2024/02/29 04:47:01;;;;;;;;;9.00;7.33;;;;;11.56;71.22;101270.34;2010837;27;2739851;-74
2024/02/29 04:48:12;;;;;;;;;8.00;6.33;;;;;11.53;71.11;101265.16;2042545;27;2748268;-74
2024/02/29 04:49:23;;;;;;;;;6.67;6.67;;;;;11.47;71.08;101255.69;2047607;27;3455496;-74
2024/02/29 04:50:33;;;;;;;;;8.00;8.00;;;;;11.52;71.09;101255.56;2047723;27;2740005;-74
2024/02/29 04:51:45;;;;;;;;;7.00;7.00;;;;;11.51;71.00;101253.00;2059873;27;2737781;-74
2024/02/29 04:52:55;;;;;;;;;8.33;7.00;;;;;11.59;70.92;101262.38;2011225;27;3451302;-74
2024/02/29 04:54:06;;;;;;;;;11.33;8.33;;;;;11.55;70.94;101244.09;2050779;27;3485668;-74
2024/02/29 04:55:19;;;;;;;;;9.00;8.33;;;;;11.60;71.00;101252.72;2059466;27;2744020;-74
2024/02/29 04:56:29;;;;;;;;;11.00;9.33;;;;;11.61;70.79;101253.56;2011871;27;2760746;-74
2024/02/29 04:57:40;;;;;;;;;13.00;11.00;;;;;11.63;70.75;101252.59;2048006;27;2790884;-74
2024/02/29 04:58:52;;;;;;;;;8.00;7.50;;;;;11.56;70.74;101238.78;2056520;27;2737734;-75
2024/02/29 05:00:05;;;;;;;;;9.67;7.00;;;;;11.65;70.66;101250.81;2032381;27;3470005;-74
2024/02/29 05:01:16;;;;;;;;;10.00;8.67;;;;;11.63;70.86;101249.97;2024747;27;2761769;-74
2024/02/29 05:02:27;;;;;;;;;10.67;8.00;;;;;11.62;70.61;101244.75;2024810;27;3475271;-74
2024/02/29 05:03:38;;;;;;;;;11.33;8.00;;;;;11.60;70.65;101236.91;2039674;27;2750257;-74
2024/02/29 05:04:49;;;;;;;;;10.67;8.67;;;;;11.63;70.66;101238.59;2054969;28;1833683;-74
2024/02/29 05:05:59;;;;;;;;;11.00;10.67;;;;;11.65;70.92;101242.91;1999915;28;3498152;-74
2024/02/29 05:07:10;;;;;;;;;7.33;7.00;;;;;11.62;70.43;101235.09;2051893;27;2738252;-74
2024/02/29 05:08:24;;;;;;;;;10.00;7.67;;;;;11.58;70.48;101220.31;2030137;27;2753442;-74
2024/02/29 05:09:34;;;;;;;;;12.00;9.00;;;;;11.64;70.29;101229.78;2008119;27;2776337;-74
2024/02/29 05:10:45;;;;;;;;;12.50;9.50;;;;;11.64;70.74;101230.66;2045942;27;2781876;-74
2024/02/29 05:11:56;;;;;;;;;9.67;7.00;;;;;11.58;70.45;101218.53;2049457;27;2745033;-74
2024/02/29 05:13:07;;;;;;;;;8.33;8.33;;;;;11.57;70.45;101216.81;2015089;27;1812779;-74
2024/02/29 05:14:18;;;;;;;;;13.50;12.00;;;;;11.66;70.26;101226.19;2016846;27;2786748;-74
2024/02/29 05:15:29;;;;;;;;;8.00;8.00;;;;;11.58;71.00;101215.88;2054577;27;2726314;-74
2024/02/29 05:16:40;;;;;;;;;10.50;9.75;;;;;11.59;70.71;101215.00;2021431;27;1828476;-74
2024/02/29 05:17:53;;;;;;;;;8.17;6.17;;;;;11.58;70.95;101210.63;2052154;27;2738814;-74
2024/02/29 05:19:04;;;;;;;;;10.00;10.00;;;;;11.62;70.60;101216.66;2006035;27;3499213;-74
2024/02/29 05:20:16;;;;;;;;;8.75;8.75;;;;;11.62;70.72;101218.44;2059060;27;2728422;-74
2024/02/29 05:21:29;;;;;;;;;7.17;6.83;;;;;11.61;70.38;101216.69;2060253;27;2732593;-74
2024/02/29 05:22:39;;;;;;;;;11.33;9.33;;;;;11.63;70.85;101214.91;2032626;27;3496071;-74